sensor_id;sensor_type;location;lat;lon;timestamp;temperature;humidity
16491;DHT22;8356;51.214;3.270;2023-04-25T00:01:04;332.90;2329.60
16491;DHT22;8356;51.214;3.270;2023-04-25T00:03:34;333.00;2329.60
16491;DHT22;8356;51.214;3.270;2023-04-25T00:06:00;332.90;2329.60
16491;DHT22;8356;51.214;3.270;2023-04-25T00:08:28;333.00;2329.60
16491;DHT22;8356;51.214;3.270;2023-04-25T00:10:54;332.90;2329.60
16491;DHT22;8356;51.214;3.270;2023-04-25T00:13:19;332.90;2329.60
16491;DHT22;8356;51.214;3.270;2023-04-25T00:15:45;332.80;2329.60
16491;DHT22;8356;51.214;3.270;2023-04-25T00:18:14;332.80;2329.60
16491;DHT22;8356;51.214;3.270;2023-04-25T00:20:39;332.90;2329.60
16491;DHT22;8356;51.214;3.270;2023-04-25T00:23:05;332.80;2329.60
16491;DHT22;8356;51.214;3.270;2023-04-25T00:25:31;308.10;2304.00
16491;DHT22;8356;51.214;3.270;2023-04-25T00:27:57;307.80;2304.00
16491;DHT22;8356;51.214;3.270;2023-04-25T00:30:22;307.50;2304.00
16491;DHT22;8356;51.214;3.270;2023-04-25T00:32:48;282.50;2278.40
16491;DHT22;8356;51.214;3.270;2023-04-25T00:35:14;282.10;2278.40
16491;DHT22;8356;51.214;3.270;2023-04-25T00:37:40;281.70;2278.40
16491;DHT22;8356;51.214;3.270;2023-04-25T00:40:06;256.90;2252.80
16491;DHT22;8356;51.214;3.270;2023-04-25T00:42:32;256.70;2252.80
16491;DHT22;8356;51.214;3.270;2023-04-25T00:44:59;256.50;2252.80
16491;DHT22;8356;51.214;3.270;2023-04-25T00:47:25;256.50;2252.80
16491;DHT22;8356;51.214;3.270;2023-04-25T00:49:51;256.60;2252.80
16491;DHT22;8356;51.214;3.270;2023-04-25T00:52:18;256.70;2252.80
16491;DHT22;8356;51.214;3.270;2023-04-25T00:54:44;256.50;2252.80
16491;DHT22;8356;51.214;3.270;2023-04-25T00:57:10;256.70;2252.80
16491;DHT22;8356;51.214;3.270;2023-04-25T00:59:36;256.80;2252.80
16491;DHT22;8356;51.214;3.270;2023-04-25T01:02:04;281.60;2278.40
16491;DHT22;8356;51.214;3.270;2023-04-25T01:04:30;281.90;2278.40
16491;DHT22;8356;51.214;3.270;2023-04-25T01:06:56;281.80;2278.40
16491;DHT22;8356;51.214;3.270;2023-04-25T01:09:23;256.80;2252.80
16491;DHT22;8356;51.214;3.270;2023-04-25T01:11:49;256.60;2252.80
16491;DHT22;8356;51.214;3.270;2023-04-25T01:14:15;256.90;2252.80
16491;DHT22;8356;51.214;3.270;2023-04-25T01:16:41;281.80;2278.40
16491;DHT22;8356;51.214;3.270;2023-04-25T01:19:10;281.90;2278.40
16491;DHT22;8356;51.214;3.270;2023-04-25T01:21:39;282.00;2278.40
16491;DHT22;8356;51.214;3.270;2023-04-25T01:24:05;282.20;2278.40
16491;DHT22;8356;51.214;3.270;2023-04-25T01:26:31;282.20;2278.40
16491;DHT22;8356;51.214;3.270;2023-04-25T01:28:58;282.30;2278.40
16491;DHT22;8356;51.214;3.270;2023-04-25T01:31:24;282.40;2278.40
16491;DHT22;8356;51.214;3.270;2023-04-25T01:33:50;307.20;2304.00
16491;DHT22;8356;51.214;3.270;2023-04-25T01:36:15;307.30;2304.00
16491;DHT22;8356;51.214;3.270;2023-04-25T01:38:41;307.60;2304.00
16491;DHT22;8356;51.214;3.270;2023-04-25T01:41:09;307.60;2304.00
16491;DHT22;8356;51.214;3.270;2023-04-25T01:43:35;307.50;2304.00
16491;DHT22;8356;51.214;3.270;2023-04-25T01:46:01;307.50;2304.00
16491;DHT22;8356;51.214;3.270;2023-04-25T01:48:26;307.40;2304.00
16491;DHT22;8356;51.214;3.270;2023-04-25T01:50:52;307.40;2304.00
16491;DHT22;8356;51.214;3.270;2023-04-25T01:53:18;307.50;2304.00
16491;DHT22;8356;51.214;3.270;2023-04-25T01:55:43;307.50;2304.00
16491;DHT22;8356;51.214;3.270;2023-04-25T01:58:09;307.50;2304.00
16491;DHT22;8356;51.214;3.270;2023-04-25T02:00:37;307.20;2304.00
16491;DHT22;8356;51.214;3.270;2023-04-25T02:03:04;282.40;2278.40
16491;DHT22;8356;51.214;3.270;2023-04-25T02:05:37;282.50;2278.40
16491;DHT22;8356;51.214;3.270;2023-04-25T02:08:05;282.30;2278.40
16491;DHT22;8356;51.214;3.270;2023-04-25T02:10:31;282.30;2278.40
16491;DHT22;8356;51.214;3.270;2023-04-25T02:12:57;281.60;2278.40
16491;DHT22;8356;51.214;3.270;2023-04-25T02:15:23;282.20;2278.40
16491;DHT22;8356;51.214;3.270;2023-04-25T02:17:49;282.20;2278.40
16491;DHT22;8356;51.214;3.270;2023-04-25T02:20:15;282.30;2278.40
16491;DHT22;8356;51.214;3.270;2023-04-25T02:22:41;282.30;2278.40
16491;DHT22;8356;51.214;3.270;2023-04-25T02:25:08;282.00;2278.40
16491;DHT22;8356;51.214;3.270;2023-04-25T02:27:34;281.90;2278.40
16491;DHT22;8356;51.214;3.270;2023-04-25T02:30:00;256.70;2252.80
16491;DHT22;8356;51.214;3.270;2023-04-25T02:32:26;256.50;2252.80
16491;DHT22;8356;51.214;3.270;2023-04-25T02:34:52;256.50;2252.80
16491;DHT22;8356;51.214;3.270;2023-04-25T02:37:18;256.60;2252.80
16491;DHT22;8356;51.214;3.270;2023-04-25T02:39:43;256.90;2252.80
16491;DHT22;8356;51.214;3.270;2023-04-25T02:42:09;281.60;2278.40
16491;DHT22;8356;51.214;3.270;2023-04-25T02:44:35;281.60;2278.40
16491;DHT22;8356;51.214;3.270;2023-04-25T02:47:00;281.80;2278.40
16491;DHT22;8356;51.214;3.270;2023-04-25T02:49:26;282.00;2278.40
16491;DHT22;8356;51.214;3.270;2023-04-25T02:51:51;282.00;2278.40
16491;DHT22;8356;51.214;3.270;2023-04-25T02:54:17;282.10;2278.40
16491;DHT22;8356;51.214;3.270;2023-04-25T02:56:43;282.00;2278.40
16491;DHT22;8356;51.214;3.270;2023-04-25T02:59:08;282.20;2278.40
16491;DHT22;8356;51.214;3.270;2023-04-25T03:01:34;282.20;2278.40
16491;DHT22;8356;51.214;3.270;2023-04-25T03:03:59;282.30;2278.40
16491;DHT22;8356;51.214;3.270;2023-04-25T03:06:25;282.10;2278.40
16491;DHT22;8356;51.214;3.270;2023-04-25T03:08:51;282.10;2278.40
16491;DHT22;8356;51.214;3.270;2023-04-25T03:11:16;282.30;2278.40
16491;DHT22;8356;51.214;3.270;2023-04-25T03:13:42;282.10;2278.40
16491;DHT22;8356;51.214;3.270;2023-04-25T03:16:08;282.00;2278.40
16491;DHT22;8356;51.214;3.270;2023-04-25T03:18:33;281.90;2278.40
16491;DHT22;8356;51.214;3.270;2023-04-25T03:20:59;256.80;2252.80
16491;DHT22;8356;51.214;3.270;2023-04-25T03:23:25;256.30;2252.80
16491;DHT22;8356;51.214;3.270;2023-04-25T03:25:51;256.00;2252.80
16491;DHT22;8356;51.214;3.270;2023-04-25T03:28:17;256.00;2252.80
16491;DHT22;8356;51.214;3.270;2023-04-25T03:30:42;256.10;2252.80
16491;DHT22;8356;51.214;3.270;2023-04-25T03:33:08;256.00;2252.80
16491;DHT22;8356;51.214;3.270;2023-04-25T03:35:33;231.30;2252.80
16491;DHT22;8356;51.214;3.270;2023-04-25T03:37:59;231.30;2252.80
16491;DHT22;8356;51.214;3.270;2023-04-25T03:40:25;231.20;2252.80
16491;DHT22;8356;51.214;3.270;2023-04-25T03:42:50;231.30;2252.80
16491;DHT22;8356;51.214;3.270;2023-04-25T03:45:16;231.20;2252.80
16491;DHT22;8356;51.214;3.270;2023-04-25T03:47:41;231.10;2252.80
16491;DHT22;8356;51.214;3.270;2023-04-25T03:50:07;230.90;2252.80
16491;DHT22;8356;51.214;3.270;2023-04-25T03:52:33;230.90;2252.80
16491;DHT22;8356;51.214;3.270;2023-04-25T03:54:59;231.10;2252.80
16491;DHT22;8356;51.214;3.270;2023-04-25T03:57:24;231.30;2252.80
16491;DHT22;8356;51.214;3.270;2023-04-25T03:59:50;256.10;2252.80
16491;DHT22;8356;51.214;3.270;2023-04-25T04:02:16;256.50;2252.80
16491;DHT22;8356;51.214;3.270;2023-04-25T04:04:41;256.70;2252.80
16491;DHT22;8356;51.214;3.270;2023-04-25T04:07:09;256.90;2252.80
16491;DHT22;8356;51.214;3.270;2023-04-25T04:09:35;281.70;2278.40
16491;DHT22;8356;51.214;3.270;2023-04-25T04:12:01;281.90;2278.40
16491;DHT22;8356;51.214;3.270;2023-04-25T04:14:28;282.10;2278.40
16491;DHT22;8356;51.214;3.270;2023-04-25T04:16:53;281.90;2278.40
16491;DHT22;8356;51.214;3.270;2023-04-25T04:19:19;282.10;2278.40
16491;DHT22;8356;51.214;3.270;2023-04-25T04:21:45;282.30;2278.40
16491;DHT22;8356;51.214;3.270;2023-04-25T04:24:11;282.30;2278.40
16491;DHT22;8356;51.214;3.270;2023-04-25T04:26:36;282.20;2278.40
16491;DHT22;8356;51.214;3.270;2023-04-25T04:29:04;282.00;2278.40
16491;DHT22;8356;51.214;3.270;2023-04-25T04:31:29;282.20;2278.40
16491;DHT22;8356;51.214;3.270;2023-04-25T04:33:55;282.20;2278.40
16491;DHT22;8356;51.214;3.270;2023-04-25T04:36:21;281.90;2278.40
16491;DHT22;8356;51.214;3.270;2023-04-25T04:38:48;281.90;2278.40
16491;DHT22;8356;51.214;3.270;2023-04-25T04:41:14;282.00;2278.40
16491;DHT22;8356;51.214;3.270;2023-04-25T04:43:40;282.10;2278.40
16491;DHT22;8356;51.214;3.270;2023-04-25T04:46:05;282.10;2278.40
16491;DHT22;8356;51.214;3.270;2023-04-25T04:48:32;281.90;2278.40
16491;DHT22;8356;51.214;3.270;2023-04-25T04:51:00;281.90;2278.40
16491;DHT22;8356;51.214;3.270;2023-04-25T04:53:26;281.80;2278.40
16491;DHT22;8356;51.214;3.270;2023-04-25T04:55:52;281.90;2278.40
16491;DHT22;8356;51.214;3.270;2023-04-25T04:58:18;281.90;2278.40
16491;DHT22;8356;51.214;3.270;2023-04-25T05:00:44;281.70;2278.40
16491;DHT22;8356;51.214;3.270;2023-04-25T05:03:10;256.90;2252.80
16491;DHT22;8356;51.214;3.270;2023-04-25T05:05:36;256.60;2252.80
16491;DHT22;8356;51.214;3.270;2023-04-25T05:08:05;256.40;2252.80
16491;DHT22;8356;51.214;3.270;2023-04-25T05:10:31;256.20;2252.80
16491;DHT22;8356;51.214;3.270;2023-04-25T05:12:57;256.10;2252.80
16491;DHT22;8356;51.214;3.270;2023-04-25T05:15:22;256.10;2252.80
16491;DHT22;8356;51.214;3.270;2023-04-25T05:17:48;256.10;2252.80
16491;DHT22;8356;51.214;3.270;2023-04-25T05:20:14;256.10;2252.80
16491;DHT22;8356;51.214;3.270;2023-04-25T05:22:39;256.10;2252.80
16491;DHT22;8356;51.214;3.270;2023-04-25T05:25:07;256.10;2252.80
16491;DHT22;8356;51.214;3.270;2023-04-25T05:27:33;256.10;2252.80
16491;DHT22;8356;51.214;3.270;2023-04-25T05:29:59;256.10;2252.80
16491;DHT22;8356;51.214;3.270;2023-04-25T05:32:25;256.10;2252.80
16491;DHT22;8356;51.214;3.270;2023-04-25T05:34:51;256.10;2252.80
16491;DHT22;8356;51.214;3.270;2023-04-25T05:37:17;256.20;2252.80
16491;DHT22;8356;51.214;3.270;2023-04-25T05:39:42;256.10;2252.80
16491;DHT22;8356;51.214;3.270;2023-04-25T05:42:08;256.30;2252.80
16491;DHT22;8356;51.214;3.270;2023-04-25T05:44:34;256.30;2252.80
16491;DHT22;8356;51.214;3.270;2023-04-25T05:46:59;256.60;2252.80
16491;DHT22;8356;51.214;3.270;2023-04-25T05:49:25;256.70;2252.80
16491;DHT22;8356;51.214;3.270;2023-04-25T05:51:51;256.70;2252.80
16491;DHT22;8356;51.214;3.270;2023-04-25T05:54:16;256.80;2252.80
16491;DHT22;8356;51.214;3.270;2023-04-25T05:56:42;256.80;2252.80
16491;DHT22;8356;51.214;3.270;2023-04-25T05:59:08;256.80;2252.80
16491;DHT22;8356;51.214;3.270;2023-04-25T06:01:34;256.80;2252.80
16491;DHT22;8356;51.214;3.270;2023-04-25T06:03:59;256.80;2252.80
16491;DHT22;8356;51.214;3.270;2023-04-25T06:06:25;256.70;2252.80
16491;DHT22;8356;51.214;3.270;2023-04-25T06:08:52;256.60;2252.80
16491;DHT22;8356;51.214;3.270;2023-04-25T06:11:17;256.60;2252.80
16491;DHT22;8356;51.214;3.270;2023-04-25T06:13:43;256.50;2252.80
16491;DHT22;8356;51.214;3.270;2023-04-25T06:16:09;256.50;2252.80
16491;DHT22;8356;51.214;3.270;2023-04-25T06:18:34;256.50;2252.80
16491;DHT22;8356;51.214;3.270;2023-04-25T06:21:00;256.50;2252.80
16491;DHT22;8356;51.214;3.270;2023-04-25T06:23:26;256.60;2252.80
16491;DHT22;8356;51.214;3.270;2023-04-25T06:25:51;256.60;2252.80
16491;DHT22;8356;51.214;3.270;2023-04-25T06:28:17;256.80;2252.80
16491;DHT22;8356;51.214;3.270;2023-04-25T06:30:43;281.60;2278.40
16491;DHT22;8356;51.214;3.270;2023-04-25T06:33:08;281.80;2278.40
16491;DHT22;8356;51.214;3.270;2023-04-25T06:35:34;282.00;2278.40
16491;DHT22;8356;51.214;3.270;2023-04-25T06:38:00;282.20;2278.40
16491;DHT22;8356;51.214;3.270;2023-04-25T06:40:26;282.20;2278.40
16491;DHT22;8356;51.214;3.270;2023-04-25T06:42:51;282.20;2278.40
16491;DHT22;8356;51.214;3.270;2023-04-25T06:45:17;282.00;2278.40
16491;DHT22;8356;51.214;3.270;2023-04-25T06:47:43;282.00;2278.40
16491;DHT22;8356;51.214;3.270;2023-04-25T06:50:09;282.00;2278.40
16491;DHT22;8356;51.214;3.270;2023-04-25T06:52:34;281.80;2278.40
16491;DHT22;8356;51.214;3.270;2023-04-25T06:55:00;281.60;2278.40
16491;DHT22;8356;51.214;3.270;2023-04-25T06:57:26;256.90;2252.80
16491;DHT22;8356;51.214;3.270;2023-04-25T06:59:51;256.90;2252.80
16491;DHT22;8356;51.214;3.270;2023-04-25T07:02:17;256.90;2252.80
16491;DHT22;8356;51.214;3.270;2023-04-25T07:04:42;256.90;2252.80
16491;DHT22;8356;51.214;3.270;2023-04-25T07:07:08;281.60;2278.40
16491;DHT22;8356;51.214;3.270;2023-04-25T07:09:34;281.80;2278.40
16491;DHT22;8356;51.214;3.270;2023-04-25T07:12:00;281.80;2278.40
16491;DHT22;8356;51.214;3.270;2023-04-25T07:14:27;281.90;2278.40
16491;DHT22;8356;51.214;3.270;2023-04-25T07:16:53;282.00;2278.40
16491;DHT22;8356;51.214;3.270;2023-04-25T07:19:21;282.00;2278.40
16491;DHT22;8356;51.214;3.270;2023-04-25T07:21:46;282.10;2278.40
16491;DHT22;8356;51.214;3.270;2023-04-25T07:24:12;281.90;2278.40
16491;DHT22;8356;51.214;3.270;2023-04-25T07:26:37;282.00;2278.40
16491;DHT22;8356;51.214;3.270;2023-04-25T07:29:03;282.00;2278.40
16491;DHT22;8356;51.214;3.270;2023-04-25T07:31:29;282.20;2278.40
16491;DHT22;8356;51.214;3.270;2023-04-25T07:33:54;282.30;2278.40
16491;DHT22;8356;51.214;3.270;2023-04-25T07:36:20;282.40;2278.40
16491;DHT22;8356;51.214;3.270;2023-04-25T07:38:46;282.40;2278.40
16491;DHT22;8356;51.214;3.270;2023-04-25T07:41:12;282.30;2278.40
16491;DHT22;8356;51.214;3.270;2023-04-25T07:43:38;282.30;2278.40
16491;DHT22;8356;51.214;3.270;2023-04-25T07:46:04;282.30;2278.40
16491;DHT22;8356;51.214;3.270;2023-04-25T07:48:30;282.30;2278.40
16491;DHT22;8356;51.214;3.270;2023-04-25T07:50:56;282.40;2278.40
16491;DHT22;8356;51.214;3.270;2023-04-25T07:53:21;307.30;2304.00
16491;DHT22;8356;51.214;3.270;2023-04-25T07:55:47;307.40;2304.00
16491;DHT22;8356;51.214;3.270;2023-04-25T07:58:12;282.50;2278.40
16491;DHT22;8356;51.214;3.270;2023-04-25T08:00:39;282.50;2278.40
16491;DHT22;8356;51.214;3.270;2023-04-25T08:03:04;282.30;2278.40
16491;DHT22;8356;51.214;3.270;2023-04-25T08:05:30;282.00;2278.40
16491;DHT22;8356;51.214;3.270;2023-04-25T08:07:56;281.90;2278.40
16491;DHT22;8356;51.214;3.270;2023-04-25T08:10:22;281.90;2278.40
16491;DHT22;8356;51.214;3.270;2023-04-25T08:12:48;281.80;2278.40
16491;DHT22;8356;51.214;3.270;2023-04-25T08:15:14;281.70;2278.40
16491;DHT22;8356;51.214;3.270;2023-04-25T08:17:40;256.90;2252.80
16491;DHT22;8356;51.214;3.270;2023-04-25T08:20:06;281.70;2278.40
16491;DHT22;8356;51.214;3.270;2023-04-25T08:22:32;282.00;2278.40
16491;DHT22;8356;51.214;3.270;2023-04-25T08:24:58;282.00;2278.40
16491;DHT22;8356;51.214;3.270;2023-04-25T08:27:23;282.00;2278.40
16491;DHT22;8356;51.214;3.270;2023-04-25T08:29:49;282.00;2278.40
16491;DHT22;8356;51.214;3.270;2023-04-25T08:32:16;281.80;2278.40
16491;DHT22;8356;51.214;3.270;2023-04-25T08:34:42;281.60;2278.40
16491;DHT22;8356;51.214;3.270;2023-04-25T08:37:09;281.70;2278.40
16491;DHT22;8356;51.214;3.270;2023-04-25T08:39:36;281.80;2278.40
16491;DHT22;8356;51.214;3.270;2023-04-25T08:42:06;282.00;2278.40
16491;DHT22;8356;51.214;3.270;2023-04-25T08:44:34;282.10;2278.40
16491;DHT22;8356;51.214;3.270;2023-04-25T08:47:03;282.30;2278.40
16491;DHT22;8356;51.214;3.270;2023-04-25T08:49:31;282.50;2278.40
16491;DHT22;8356;51.214;3.270;2023-04-25T08:52:00;307.20;2304.00
16491;DHT22;8356;51.214;3.270;2023-04-25T08:54:27;282.50;2278.40
16491;DHT22;8356;51.214;3.270;2023-04-25T08:56:54;281.60;2278.40
16491;DHT22;8356;51.214;3.270;2023-04-25T08:59:22;307.30;2304.00
16491;DHT22;8356;51.214;3.270;2023-04-25T09:01:49;307.40;2304.00
16491;DHT22;8356;51.214;3.270;2023-04-25T09:04:15;307.40;2304.00
16491;DHT22;8356;51.214;3.270;2023-04-25T09:06:41;307.40;2304.00
16491;DHT22;8356;51.214;3.270;2023-04-25T09:09:08;307.60;2304.00
16491;DHT22;8356;51.214;3.270;2023-04-25T09:11:36;307.90;2304.00
16491;DHT22;8356;51.214;3.270;2023-04-25T09:14:18;308.10;2304.00
16491;DHT22;8356;51.214;3.270;2023-04-25T09:19:29;307.70;2304.00
16491;DHT22;8356;51.214;3.270;2023-04-25T09:21:57;307.20;2304.00
16491;DHT22;8356;51.214;3.270;2023-04-25T09:24:42;282.30;2278.40
16491;DHT22;8356;51.214;3.270;2023-04-25T09:27:17;282.00;2278.40
16491;DHT22;8356;51.214;3.270;2023-04-25T09:29:43;281.90;2278.40
16491;DHT22;8356;51.214;3.270;2023-04-25T09:32:15;281.90;2278.40
16491;DHT22;8356;51.214;3.270;2023-04-25T09:34:42;281.90;2278.40
16491;DHT22;8356;51.214;3.270;2023-04-25T09:37:09;281.90;2278.40
16491;DHT22;8356;51.214;3.270;2023-04-25T09:39:37;281.90;2278.40
16491;DHT22;8356;51.214;3.270;2023-04-25T09:42:04;282.30;2278.40
16491;DHT22;8356;51.214;3.270;2023-04-25T09:44:30;307.60;2304.00
16491;DHT22;8356;51.214;3.270;2023-04-25T09:46:55;308.00;2304.00
16491;DHT22;8356;51.214;3.270;2023-04-25T09:49:22;308.00;2304.00
16491;DHT22;8356;51.214;3.270;2023-04-25T09:51:58;332.80;2329.60
16491;DHT22;8356;51.214;3.270;2023-04-25T09:54:25;333.10;2329.60
16491;DHT22;8356;51.214;3.270;2023-04-25T09:56:53;333.50;2329.60
16491;DHT22;8356;51.214;3.270;2023-04-25T09:59:22;358.40;2329.60
16491;DHT22;8356;51.214;3.270;2023-04-25T10:01:49;358.50;2329.60
16491;DHT22;8356;51.214;3.270;2023-04-25T10:04:24;333.70;2329.60
16491;DHT22;8356;51.214;3.270;2023-04-25T10:06:53;333.50;2329.60
16491;DHT22;8356;51.214;3.270;2023-04-25T10:09:20;358.60;2329.60
16491;DHT22;8356;51.214;3.270;2023-04-25T10:11:47;358.80;2329.60
16491;DHT22;8356;51.214;3.270;2023-04-25T10:14:14;358.60;2329.60
16491;DHT22;8356;51.214;3.270;2023-04-25T10:16:41;333.40;2329.60
16491;DHT22;8356;51.214;3.270;2023-04-25T10:19:07;333.00;2329.60
16491;DHT22;8356;51.214;3.270;2023-04-25T10:21:33;332.90;2329.60
16491;DHT22;8356;51.214;3.270;2023-04-25T10:24:00;308.10;2304.00
16491;DHT22;8356;51.214;3.270;2023-04-25T10:26:27;333.10;2329.60
16491;DHT22;8356;51.214;3.270;2023-04-25T10:29:00;333.40;2329.60
16491;DHT22;8356;51.214;3.270;2023-04-25T10:31:27;333.70;2329.60
16491;DHT22;8356;51.214;3.270;2023-04-25T10:33:54;358.50;2329.60
16491;DHT22;8356;51.214;3.270;2023-04-25T10:36:23;333.70;2329.60
16491;DHT22;8356;51.214;3.270;2023-04-25T10:38:50;358.70;2329.60
16491;DHT22;8356;51.214;3.270;2023-04-25T10:41:20;358.90;2329.60
16491;DHT22;8356;51.214;3.270;2023-04-25T10:43:47;358.70;2329.60
16491;DHT22;8356;51.214;3.270;2023-04-25T10:46:17;358.60;2329.60
16491;DHT22;8356;51.214;3.270;2023-04-25T10:48:55;358.60;2329.60
16491;DHT22;8356;51.214;3.270;2023-04-25T10:51:25;358.50;2329.60
16491;DHT22;8356;51.214;3.270;2023-04-25T10:56:21;358.90;2329.60
16491;DHT22;8356;51.214;3.270;2023-04-25T10:58:47;359.10;2329.60
16491;DHT22;8356;51.214;3.270;2023-04-25T11:01:15;359.20;2329.60
16491;DHT22;8356;51.214;3.270;2023-04-25T11:03:42;359.30;2329.60
16491;DHT22;8356;51.214;3.270;2023-04-25T11:07:22;358.90;2329.60
16491;DHT22;8356;51.214;3.270;2023-04-25T11:09:18;358.60;2329.60
16491;DHT22;8356;51.214;3.270;2023-04-25T11:11:56;333.70;2329.60
16491;DHT22;8356;51.214;3.270;2023-04-25T11:14:22;333.30;2329.60
16491;DHT22;8356;51.214;3.270;2023-04-25T11:16:53;332.80;2329.60
16491;DHT22;8356;51.214;3.270;2023-04-25T11:19:21;332.80;2329.60
16491;DHT22;8356;51.214;3.270;2023-04-25T11:21:46;308.10;2304.00
16491;DHT22;8356;51.214;3.270;2023-04-25T11:24:12;308.10;2304.00
16491;DHT22;8356;51.214;3.270;2023-04-25T11:26:41;308.00;2304.00
16491;DHT22;8356;51.214;3.270;2023-04-25T11:29:06;308.00;2304.00
16491;DHT22;8356;51.214;3.270;2023-04-25T11:31:32;307.60;2304.00
16491;DHT22;8356;51.214;3.270;2023-04-25T11:33:57;307.60;2304.00
16491;DHT22;8356;51.214;3.270;2023-04-25T11:36:24;308.10;2304.00
16491;DHT22;8356;51.214;3.270;2023-04-25T11:38:52;308.10;2304.00
16491;DHT22;8356;51.214;3.270;2023-04-25T11:41:19;332.90;2329.60
16491;DHT22;8356;51.214;3.270;2023-04-25T11:43:45;333.10;2329.60
16491;DHT22;8356;51.214;3.270;2023-04-25T11:46:11;308.10;2304.00
16491;DHT22;8356;51.214;3.270;2023-04-25T11:48:40;307.90;2304.00
16491;DHT22;8356;51.214;3.270;2023-04-25T11:51:06;333.20;2329.60
16491;DHT22;8356;51.214;3.270;2023-04-25T11:53:32;333.20;2329.60
16491;DHT22;8356;51.214;3.270;2023-04-25T11:55:58;333.20;2329.60
16491;DHT22;8356;51.214;3.270;2023-04-25T11:58:23;333.20;2329.60
16491;DHT22;8356;51.214;3.270;2023-04-25T12:00:50;333.10;2329.60
16491;DHT22;8356;51.214;3.270;2023-04-25T12:03:17;333.10;2329.60
16491;DHT22;8356;51.214;3.270;2023-04-25T12:05:44;333.00;2329.60
16491;DHT22;8356;51.214;3.270;2023-04-25T12:08:12;282.30;2278.40
16491;DHT22;8356;51.214;3.270;2023-04-25T12:10:39;307.90;2304.00
16491;DHT22;8356;51.214;3.270;2023-04-25T12:13:25;307.90;2304.00
16491;DHT22;8356;51.214;3.270;2023-04-25T12:15:54;307.90;2304.00
16491;DHT22;8356;51.214;3.270;2023-04-25T12:18:23;307.70;2304.00
16491;DHT22;8356;51.214;3.270;2023-04-25T12:20:49;307.70;2304.00
16491;DHT22;8356;51.214;3.270;2023-04-25T12:23:15;307.80;2304.00
16491;DHT22;8356;51.214;3.270;2023-04-25T12:25:42;308.00;2304.00
16491;DHT22;8356;51.214;3.270;2023-04-25T12:28:16;307.90;2304.00
16491;DHT22;8356;51.214;3.270;2023-04-25T12:31:01;333.20;2329.60
16491;DHT22;8356;51.214;3.270;2023-04-25T12:33:35;333.40;2329.60
16491;DHT22;8356;51.214;3.270;2023-04-25T12:36:02;333.50;2329.60
16491;DHT22;8356;51.214;3.270;2023-04-25T12:38:37;333.00;2329.60
16491;DHT22;8356;51.214;3.270;2023-04-25T12:41:03;333.20;2329.60
16491;DHT22;8356;51.214;3.270;2023-04-25T12:43:29;333.40;2329.60
16491;DHT22;8356;51.214;3.270;2023-04-25T12:45:55;333.50;2329.60
16491;DHT22;8356;51.214;3.270;2023-04-25T12:48:22;358.60;2329.60
16491;DHT22;8356;51.214;3.270;2023-04-25T12:50:49;358.70;2329.60
16491;DHT22;8356;51.214;3.270;2023-04-25T12:53:16;333.40;2329.60
16491;DHT22;8356;51.214;3.270;2023-04-25T12:55:42;333.20;2329.60
16491;DHT22;8356;51.214;3.270;2023-04-25T12:58:08;333.10;2329.60
16491;DHT22;8356;51.214;3.270;2023-04-25T13:00:34;333.20;2329.60
16491;DHT22;8356;51.214;3.270;2023-04-25T13:02:59;333.00;2329.60
16491;DHT22;8356;51.214;3.270;2023-04-25T13:05:25;308.00;2304.00
16491;DHT22;8356;51.214;3.270;2023-04-25T13:07:51;307.90;2304.00
16491;DHT22;8356;51.214;3.270;2023-04-25T13:10:17;307.90;2304.00
16491;DHT22;8356;51.214;3.270;2023-04-25T13:12:43;307.90;2304.00
16491;DHT22;8356;51.214;3.270;2023-04-25T13:15:09;333.00;2329.60
16491;DHT22;8356;51.214;3.270;2023-04-25T13:17:37;333.00;2329.60
16491;DHT22;8356;51.214;3.270;2023-04-25T13:20:04;333.20;2329.60
16491;DHT22;8356;51.214;3.270;2023-04-25T13:22:32;333.50;2329.60
16491;DHT22;8356;51.214;3.270;2023-04-25T13:24:58;333.60;2329.60
16491;DHT22;8356;51.214;3.270;2023-04-25T13:27:23;333.50;2329.60
16491;DHT22;8356;51.214;3.270;2023-04-25T13:29:49;333.10;2329.60
16491;DHT22;8356;51.214;3.270;2023-04-25T13:32:14;333.20;2329.60
16491;DHT22;8356;51.214;3.270;2023-04-25T13:34:40;333.40;2329.60
16491;DHT22;8356;51.214;3.270;2023-04-25T13:37:06;333.70;2329.60
16491;DHT22;8356;51.214;3.270;2023-04-25T13:39:31;358.60;2329.60
16491;DHT22;8356;51.214;3.270;2023-04-25T13:41:57;358.40;2329.60
16491;DHT22;8356;51.214;3.270;2023-04-25T13:44:23;333.30;2329.60
16491;DHT22;8356;51.214;3.270;2023-04-25T13:46:48;333.10;2329.60
16491;DHT22;8356;51.214;3.270;2023-04-25T13:49:14;332.80;2329.60
16491;DHT22;8356;51.214;3.270;2023-04-25T13:51:40;307.70;2304.00
16491;DHT22;8356;51.214;3.270;2023-04-25T13:54:05;308.00;2304.00
16491;DHT22;8356;51.214;3.270;2023-04-25T13:56:31;332.90;2329.60
16491;DHT22;8356;51.214;3.270;2023-04-25T13:58:57;333.10;2329.60
16491;DHT22;8356;51.214;3.270;2023-04-25T14:01:22;333.30;2329.60
16491;DHT22;8356;51.214;3.270;2023-04-25T14:03:48;333.50;2329.60
16491;DHT22;8356;51.214;3.270;2023-04-25T14:06:14;333.50;2329.60
16491;DHT22;8356;51.214;3.270;2023-04-25T14:08:42;333.20;2329.60
16491;DHT22;8356;51.214;3.270;2023-04-25T14:11:08;333.10;2329.60
16491;DHT22;8356;51.214;3.270;2023-04-25T14:13:33;333.10;2329.60
16491;DHT22;8356;51.214;3.270;2023-04-25T14:15:59;332.90;2329.60
16491;DHT22;8356;51.214;3.270;2023-04-25T14:18:24;308.10;2304.00
16491;DHT22;8356;51.214;3.270;2023-04-25T14:20:50;307.80;2304.00
16491;DHT22;8356;51.214;3.270;2023-04-25T14:23:16;307.70;2304.00
16491;DHT22;8356;51.214;3.270;2023-04-25T14:25:42;307.70;2304.00
16491;DHT22;8356;51.214;3.270;2023-04-25T14:28:09;307.60;2304.00
16491;DHT22;8356;51.214;3.270;2023-04-25T14:30:35;307.90;2304.00
16491;DHT22;8356;51.214;3.270;2023-04-25T14:33:01;307.90;2304.00
16491;DHT22;8356;51.214;3.270;2023-04-25T14:35:26;307.80;2304.00
16491;DHT22;8356;51.214;3.270;2023-04-25T14:37:53;307.80;2304.00
16491;DHT22;8356;51.214;3.270;2023-04-25T14:40:19;307.90;2304.00
16491;DHT22;8356;51.214;3.270;2023-04-25T14:42:48;308.00;2304.00
16491;DHT22;8356;51.214;3.270;2023-04-25T14:45:14;332.90;2329.60
16491;DHT22;8356;51.214;3.270;2023-04-25T14:47:40;333.30;2329.60
16491;DHT22;8356;51.214;3.270;2023-04-25T14:50:06;333.50;2329.60
16491;DHT22;8356;51.214;3.270;2023-04-25T14:52:32;333.20;2329.60
16491;DHT22;8356;51.214;3.270;2023-04-25T14:54:58;333.10;2329.60
16491;DHT22;8356;51.214;3.270;2023-04-25T14:57:25;332.90;2329.60
16491;DHT22;8356;51.214;3.270;2023-04-25T14:59:51;332.80;2329.60
16491;DHT22;8356;51.214;3.270;2023-04-25T15:02:17;332.90;2329.60
16491;DHT22;8356;51.214;3.270;2023-04-25T15:04:43;332.90;2329.60